Terminal Aerodrome Forecast
Issued by NWS Charleston, WV

Current Version | Previous Version | Text Only | Print | Product List | Glossary Off
Versions: 1 2 3 4 5 6 7 8 9 10 11 12 13 14 15 16 17 18 19 20 21 22 23 24 25 26 27

724
FTUS41 KRLX 302338
TAFEKN
TAF
KEKN 302338Z 0100/0124 22004KT 6SM SHRA OVC070
     FM010200 26007KT 3SM -SHRA OVC015
     FM010500 27009G15KT P6SM BKN060
     FM011300 27009G15KT P6SM BKN025=

USA.gov is the U.S. government's official web portal to all federal, state and local government web resources and services.